createdAt,value
2018-04-27T00:00:41.553Z,94.84
2018-04-27T00:01:41.490Z,95.03
2018-04-27T00:02:41.428Z,94.74
2018-04-27T00:03:41.366Z,95.31
2018-04-27T00:04:41.304Z,94.84
2018-04-27T00:05:41.241Z,94.74
2018-04-27T00:06:41.180Z,94.74
2018-04-27T00:07:41.118Z,94.08
2018-04-27T00:08:41.058Z,94.18
2018-04-27T00:09:40.995Z,94.27
2018-04-27T00:10:40.932Z,93.84
2018-04-27T00:11:40.871Z,94.32
2018-04-27T00:12:40.807Z,95.07
2018-04-27T00:13:40.747Z,95.93
2018-04-27T00:14:40.683Z,96.41
2018-04-27T00:15:40.624Z,95.74
2018-04-27T00:16:40.559Z,96.12
2018-04-27T00:17:40.509Z,96.22
2018-04-27T00:18:40.435Z,96.50
2018-04-27T00:19:40.371Z,95.93
2018-04-27T00:20:40.315Z,96.03
2018-04-27T00:21:40.248Z,96.69
2018-04-27T00:22:40.184Z,96.88
2018-04-27T00:23:40.123Z,97.07
2018-04-27T00:24:40.062Z,97.07
2018-04-27T00:25:40.000Z,96.03
2018-04-27T00:26:39.934Z,96.12
2018-04-27T00:27:39.871Z,95.45
2018-04-27T00:28:39.810Z,95.93
2018-04-27T00:29:39.749Z,95.45
2018-04-27T00:30:39.684Z,95.55
2018-04-27T00:31:39.622Z,95.93
2018-04-27T00:32:39.560Z,95.84
2018-04-27T00:33:39.499Z,96.22
2018-04-27T00:34:39.434Z,95.65
2018-04-27T00:35:39.372Z,95.74
2018-04-27T00:36:39.311Z,96.03
2018-04-27T00:37:39.250Z,95.55
2018-04-27T00:38:39.186Z,95.74
2018-04-27T00:39:39.125Z,95.26
2018-04-27T00:40:39.063Z,95.26
2018-04-27T00:41:39.000Z,95.26
2018-04-27T00:42:38.967Z,96.50
2018-04-27T00:43:38.875Z,96.22
2018-04-27T00:44:38.813Z,95.93
2018-04-27T00:45:38.752Z,95.93
2018-04-27T00:46:38.687Z,95.74
2018-04-27T00:47:38.626Z,95.84
2018-04-27T00:48:38.565Z,96.12
2018-04-27T00:49:38.509Z,96.22
2018-04-27T00:50:38.439Z,96.22
2018-04-27T00:51:38.376Z,96.31
2018-04-27T00:52:38.316Z,96.31
2018-04-27T00:53:38.252Z,96.41
2018-04-27T00:54:38.189Z,97.26
2018-04-27T00:55:38.126Z,97.54
2018-04-27T00:56:38.067Z,96.88
2018-04-27T00:57:38.001Z,96.78
2018-04-27T00:58:37.941Z,97.07
2018-04-27T00:59:37.880Z,96.69
2018-04-27T01:00:37.817Z,96.50
2018-04-27T01:01:37.753Z,96.41
2018-04-27T01:02:37.692Z,97.07
2018-04-27T01:03:37.627Z,96.69
2018-04-27T01:04:37.568Z,96.41
2018-04-27T01:05:37.503Z,96.03
2018-04-27T01:06:37.439Z,96.03
2018-04-27T01:07:37.377Z,95.74
2018-04-27T01:08:37.317Z,96.31
2018-04-27T01:09:37.254Z,96.31
2018-04-27T01:10:37.194Z,96.12
2018-04-27T01:11:37.129Z,96.31
2018-04-27T01:12:37.065Z,96.12
2018-04-27T01:13:37.004Z,96.69
2018-04-27T01:14:36.940Z,97.16
2018-04-27T01:15:36.889Z,96.88
2018-04-27T01:16:36.817Z,96.97
2018-04-27T01:17:36.754Z,96.50
2018-04-27T01:18:36.695Z,95.74
2018-04-27T01:19:36.629Z,96.50
2018-04-27T01:20:36.567Z,96.69
2018-04-27T01:21:36.505Z,96.50
2018-04-27T01:22:36.443Z,96.88
2018-04-27T01:23:36.380Z,96.50
2018-04-27T01:24:36.316Z,96.41
2018-04-27T01:25:36.256Z,96.31
2018-04-27T01:26:36.194Z,96.31
2018-04-27T01:27:36.132Z,96.69
2018-04-27T01:28:36.067Z,96.97
2018-04-27T01:29:36.010Z,96.03
2018-04-27T01:30:35.941Z,96.22
2018-04-27T01:31:35.881Z,95.74
2018-04-27T01:32:35.818Z,96.41
2018-04-27T01:33:35.755Z,96.12
2018-04-27T01:34:35.691Z,95.84
2018-04-27T01:35:35.629Z,96.03
2018-04-27T01:36:35.571Z,95.84
2018-04-27T01:37:35.508Z,96.12
2018-04-27T01:38:35.441Z,96.97
2018-04-27T01:39:35.380Z,97.26
2018-04-27T01:40:35.317Z,97.30
2018-04-27T01:41:35.254Z,97.21
2018-04-27T01:42:35.191Z,97.87
2018-04-27T01:43:35.131Z,97.87
2018-04-27T01:44:35.067Z,98.25
2018-04-27T01:45:35.006Z,98.16
2018-04-27T01:46:34.943Z,99.01
2018-04-27T01:47:34.882Z,98.35
2018-04-27T01:48:34.816Z,97.97
2018-04-27T01:49:34.756Z,97.87
2018-04-27T01:50:34.689Z,97.78
2018-04-27T01:51:34.628Z,97.59
2018-04-27T01:52:34.566Z,97.59
2018-04-27T01:53:34.504Z,97.40
2018-04-27T01:54:34.440Z,98.44
2018-04-27T01:55:34.379Z,98.63
2018-04-27T01:56:34.317Z,99.01
2018-04-27T01:57:34.253Z,98.82
2018-04-27T01:58:34.188Z,99.01
2018-04-27T01:59:34.126Z,98.25
2018-04-27T02:00:34.066Z,98.25
2018-04-27T02:01:34.002Z,97.78
2018-04-27T02:02:33.937Z,97.97
2018-04-27T02:03:33.873Z,98.25
2018-04-27T02:04:33.812Z,98.54
2018-04-27T02:05:33.749Z,98.63
2018-04-27T02:06:33.685Z,98.54
2018-04-27T02:07:33.629Z,99.01
2018-04-27T02:08:33.563Z,98.82
2018-04-27T02:09:33.498Z,98.63
2018-04-27T02:10:33.434Z,97.78
2018-04-27T02:11:33.372Z,98.35
2018-04-27T02:12:33.308Z,98.25
2018-04-27T02:13:33.245Z,98.16
2018-04-27T02:14:33.183Z,97.87
2018-04-27T02:15:33.121Z,97.68
2018-04-27T02:16:33.057Z,97.59
2018-04-27T02:17:32.996Z,97.68
2018-04-27T02:18:32.932Z,97.59
2018-04-27T02:19:32.869Z,97.97
2018-04-27T02:20:32.808Z,97.87
2018-04-27T02:21:32.742Z,97.59
2018-04-27T02:22:32.680Z,97.59
2018-04-27T02:23:32.617Z,97.40
2018-04-27T02:24:32.554Z,97.40
2018-04-27T02:25:32.492Z,97.87
2018-04-27T02:26:32.432Z,98.06
2018-04-27T02:27:32.366Z,98.16
2018-04-27T02:28:32.302Z,98.72
2018-04-27T02:29:32.243Z,98.82
2018-04-27T02:30:32.179Z,99.01
2018-04-27T02:31:32.113Z,98.54
2018-04-27T02:32:32.053Z,98.35
2018-04-27T02:33:31.988Z,98.35
2018-04-27T02:34:31.926Z,98.72
2018-04-27T02:35:31.861Z,98.72
2018-04-27T02:36:31.799Z,98.54
2018-04-27T02:37:31.735Z,98.54
2018-04-27T02:38:31.682Z,97.68
2018-04-27T02:39:31.609Z,97.87
2018-04-27T02:40:31.552Z,98.44
2018-04-27T02:41:31.484Z,97.78
2018-04-27T02:42:31.419Z,97.68
2018-04-27T02:43:31.357Z,97.78
2018-04-27T02:44:31.295Z,97.68
2018-04-27T02:45:31.230Z,97.59
2018-04-27T02:46:31.167Z,97.97
2018-04-27T02:47:31.106Z,97.78
2018-04-27T02:48:31.053Z,98.06
2018-04-27T02:49:30.978Z,97.97
2018-04-27T02:50:30.919Z,97.97
2018-04-27T02:51:30.852Z,97.68
2018-04-27T02:52:30.790Z,97.49
2018-04-27T02:53:30.728Z,97.68
2018-04-27T02:54:30.662Z,98.35
2018-04-27T02:55:30.600Z,98.63
2018-04-27T02:56:30.539Z,98.16
2018-04-27T02:57:30.476Z,98.06
2018-04-27T02:58:30.411Z,98.06
2018-04-27T02:59:30.351Z,98.11
2018-04-27T03:00:30.286Z,98.49
2018-04-27T03:01:30.222Z,99.15
2018-04-27T03:02:30.159Z,99.24
2018-04-27T03:03:30.097Z,99.24
2018-04-27T03:04:30.032Z,99.15
2018-04-27T03:05:29.968Z,99.33
2018-04-27T03:06:29.904Z,99.99
2018-04-27T03:07:29.846Z,99.05
2018-04-27T03:08:29.779Z,99.15
2018-04-27T03:09:29.719Z,99.24
2018-04-27T03:10:29.651Z,99.99
2018-04-27T03:11:29.588Z,99.90
2018-04-27T03:12:29.524Z,99.81
2018-04-27T03:13:29.462Z,99.99
2018-04-27T03:14:29.399Z,99.99
2018-04-27T03:15:29.334Z,99.99
2018-04-27T03:16:29.270Z,99.99
2018-04-27T03:17:29.219Z,99.99
2018-04-27T03:18:29.143Z,98.96
2018-04-27T03:19:29.079Z,99.52
2018-04-27T03:20:29.018Z,98.77
2018-04-27T03:21:28.958Z,98.86
2018-04-27T03:22:28.889Z,98.96
2018-04-27T03:23:28.826Z,99.05
2018-04-27T03:24:28.763Z,99.20
2018-04-27T03:25:28.703Z,98.86
2018-04-27T03:26:28.683Z,99.15
2018-04-27T03:27:28.572Z,99.15
2018-04-27T03:28:28.510Z,99.90
2018-04-27T03:29:28.445Z,99.99
2018-04-27T03:30:28.384Z,99.99
2018-04-27T03:31:28.325Z,99.96
2018-04-27T03:32:28.255Z,99.99
2018-04-27T03:33:28.192Z,99.99
2018-04-27T03:34:28.130Z,99.99
2018-04-27T03:35:28.064Z,99.99
2018-04-27T03:36:28.001Z,99.99
2018-04-27T03:37:27.948Z,99.99
2018-04-27T03:38:27.874Z,99.29
2018-04-27T03:39:27.812Z,99.48
2018-04-27T03:40:27.748Z,98.72
2018-04-27T03:41:27.685Z,99.01
2018-04-27T03:42:27.622Z,98.54
2018-04-27T03:43:27.561Z,98.91
2018-04-27T03:44:27.498Z,98.91
2018-04-27T03:45:27.519Z,98.91
2018-04-27T03:46:27.368Z,98.72
2018-04-27T03:47:27.304Z,98.72
2018-04-27T03:48:27.243Z,98.35
2018-04-27T03:49:27.182Z,98.25
2018-04-27T03:50:27.115Z,99.01
2018-04-27T03:51:27.053Z,98.35
2018-04-27T03:52:26.991Z,97.78
2018-04-27T03:53:26.926Z,98.44
2018-04-27T03:54:26.862Z,98.49
2018-04-27T03:55:26.851Z,99.01
2018-04-27T03:56:26.738Z,98.77
2018-04-27T03:57:26.673Z,98.96
2018-04-27T03:58:26.613Z,99.81
2018-04-27T03:59:26.552Z,99.99
2018-04-27T04:00:26.484Z,99.90
2018-04-27T04:01:26.421Z,99.90
2018-04-27T04:02:26.362Z,99.99
2018-04-27T04:03:26.298Z,99.99
2018-04-27T04:04:26.233Z,99.24
2018-04-27T04:05:26.172Z,99.15
2018-04-27T04:06:26.105Z,99.52
2018-04-27T04:07:26.040Z,99.33
2018-04-27T04:08:25.977Z,99.99
2018-04-27T04:09:25.924Z,99.99
2018-04-27T04:10:25.849Z,99.99
2018-04-27T04:11:25.787Z,99.99
2018-04-27T04:12:25.724Z,99.99
2018-04-27T04:13:25.662Z,99.99
2018-04-27T04:14:25.603Z,99.99
2018-04-27T04:15:25.533Z,99.15
2018-04-27T04:16:25.472Z,99.33
2018-04-27T04:17:25.407Z,99.24
2018-04-27T04:18:25.342Z,99.99
2018-04-27T04:19:25.283Z,99.99
2018-04-27T04:20:25.228Z,99.99
2018-04-27T04:21:25.153Z,99.99
2018-04-27T04:22:25.092Z,99.99
2018-04-27T04:23:25.026Z,99.99
2018-04-27T04:24:24.965Z,99.99
2018-04-27T04:25:24.900Z,99.99
2018-04-27T04:26:24.835Z,99.99
2018-04-27T04:27:24.772Z,99.99
2018-04-27T04:28:24.707Z,99.99
2018-04-27T04:29:24.653Z,99.99
2018-04-27T04:30:24.584Z,99.99
2018-04-27T04:31:24.519Z,99.99
2018-04-27T04:32:24.502Z,99.99
2018-04-27T04:33:24.392Z,99.24
2018-04-27T04:34:24.327Z,99.99
2018-04-27T04:35:24.264Z,99.15
2018-04-27T04:36:24.206Z,99.15
2018-04-27T04:37:24.139Z,99.99
2018-04-27T04:38:24.159Z,99.81
2018-04-27T04:39:24.010Z,99.90
2018-04-27T04:40:23.948Z,99.71
2018-04-27T04:41:23.883Z,99.99
2018-04-27T04:42:23.820Z,99.99
2018-04-27T04:43:23.757Z,99.99
2018-04-27T04:44:23.701Z,99.99
2018-04-27T04:45:23.629Z,99.99
2018-04-27T04:46:23.567Z,99.99
2018-04-27T04:47:23.502Z,99.99
2018-04-27T04:48:23.441Z,99.81
2018-04-27T04:49:23.380Z,99.71
2018-04-27T04:50:23.311Z,99.99
2018-04-27T04:51:23.248Z,99.99
2018-04-27T04:52:23.232Z,99.81
2018-04-27T04:53:23.123Z,99.99
2018-04-27T04:54:23.058Z,99.99
2018-04-27T04:55:22.995Z,99.99
2018-04-27T04:56:22.929Z,99.99
2018-04-27T04:57:22.867Z,99.99
2018-04-27T04:58:22.804Z,99.99
2018-04-27T04:59:22.739Z,99.99
2018-04-27T05:00:22.675Z,99.99
2018-04-27T05:01:22.612Z,99.99
2018-04-27T05:02:22.548Z,99.99
2018-04-27T05:03:22.484Z,99.99
2018-04-27T05:04:22.421Z,99.99
2018-04-27T05:05:22.357Z,99.99
2018-04-27T05:06:22.294Z,99.99
2018-04-27T05:07:22.230Z,99.99
2018-04-27T05:08:22.218Z,99.99
2018-04-27T05:09:22.104Z,99.99
2018-04-27T05:10:22.039Z,99.99
2018-04-27T05:11:21.976Z,99.99
2018-04-27T05:12:21.912Z,99.99
2018-04-27T05:13:21.848Z,99.99
2018-04-27T05:14:21.786Z,99.99
2018-04-27T05:15:21.720Z,99.99
2018-04-27T05:16:21.662Z,99.99
2018-04-27T05:17:21.595Z,99.99
2018-04-27T05:18:21.530Z,99.99
2018-04-27T05:19:21.469Z,99.99
2018-04-27T05:20:21.404Z,99.99
2018-04-27T05:21:21.340Z,99.99
2018-04-27T05:22:21.278Z,99.99
2018-04-27T05:23:21.213Z,99.99
2018-04-27T05:24:21.170Z,99.99
2018-04-27T05:25:21.087Z,99.99
2018-04-27T05:26:21.024Z,99.99
2018-04-27T05:27:20.959Z,99.25
2018-04-27T05:28:20.896Z,98.68
2018-04-27T05:29:20.834Z,98.77
2018-04-27T05:30:20.775Z,98.21
2018-04-27T05:31:20.707Z,97.69
2018-04-27T05:32:20.646Z,97.97
2018-04-27T05:33:20.586Z,97.69
2018-04-27T05:34:20.520Z,97.88
2018-04-27T05:35:20.457Z,97.78
2018-04-27T05:36:20.395Z,97.97
2018-04-27T05:37:20.334Z,96.92
2018-04-27T05:38:20.270Z,96.73
2018-04-27T05:39:20.209Z,96.08
2018-04-27T05:40:20.147Z,95.79
2018-04-27T05:41:20.083Z,95.88
2018-04-27T05:42:20.021Z,95.79
2018-04-27T05:43:19.956Z,95.98
2018-04-27T05:44:19.895Z,96.73
2018-04-27T05:45:19.833Z,97.36
2018-04-27T05:46:19.773Z,97.17
2018-04-27T05:47:19.709Z,97.55
2018-04-27T05:48:19.745Z,97.92
2018-04-27T05:49:19.586Z,97.74
2018-04-27T05:50:19.522Z,97.26
2018-04-27T05:51:19.466Z,96.97
2018-04-27T05:52:19.401Z,97.17
2018-04-27T05:53:19.337Z,97.45
2018-04-27T05:54:19.277Z,96.97
2018-04-27T05:55:19.212Z,97.83
2018-04-27T05:56:19.152Z,97.36
2018-04-27T05:57:19.090Z,98.02
2018-04-27T05:58:19.026Z,97.92
2018-04-27T05:59:18.965Z,97.92
2018-04-27T06:00:18.905Z,97.36
2018-04-27T06:01:18.844Z,98.02
2018-04-27T06:02:18.780Z,97.64
2018-04-27T06:03:18.719Z,97.36
2018-04-27T06:04:18.657Z,97.36
2018-04-27T06:05:18.596Z,97.17
2018-04-27T06:06:18.535Z,96.64
2018-04-27T06:07:18.474Z,96.78
2018-04-27T06:08:18.411Z,96.59
2018-04-27T06:09:18.361Z,97.31
2018-04-27T06:10:18.287Z,96.64
2018-04-27T06:11:18.229Z,96.08
2018-04-27T06:12:18.167Z,96.36
2018-04-27T06:13:18.104Z,95.89
2018-04-27T06:14:18.040Z,96.08
2018-04-27T06:15:17.982Z,95.89
2018-04-27T06:16:17.919Z,95.60
2018-04-27T06:17:17.860Z,95.89
2018-04-27T06:18:17.796Z,96.55
2018-04-27T06:19:17.734Z,96.93
2018-04-27T06:20:17.672Z,96.08
2018-04-27T06:21:17.611Z,95.60
2018-04-27T06:22:17.548Z,96.12
2018-04-27T06:23:17.488Z,95.84
2018-04-27T06:24:17.426Z,95.75
2018-04-27T06:25:17.364Z,95.27
2018-04-27T06:26:17.302Z,94.89
2018-04-27T06:27:17.240Z,94.60
2018-04-27T06:28:17.180Z,93.65
2018-04-27T06:29:17.119Z,93.65
2018-04-27T06:30:17.058Z,93.37
2018-04-27T06:31:16.996Z,92.56
2018-04-27T06:32:16.935Z,91.33
2018-04-27T06:33:16.873Z,90.66
2018-04-27T06:34:16.812Z,90.19
2018-04-27T06:35:16.749Z,90.09
2018-04-27T06:36:16.689Z,90.47
2018-04-27T06:37:16.628Z,90.37
2018-04-27T06:38:16.566Z,90.09
2018-04-27T06:39:16.506Z,90.19
2018-04-27T06:40:16.445Z,89.61
2018-04-27T06:41:16.383Z,88.95
2018-04-27T06:42:16.323Z,88.85
2018-04-27T06:43:16.263Z,88.23
2018-04-27T06:44:16.203Z,88.61
2018-04-27T06:45:16.142Z,87.95
2018-04-27T06:46:16.086Z,86.80
2018-04-27T06:47:16.021Z,86.05
2018-04-27T06:48:15.963Z,84.24
2018-04-27T06:49:15.973Z,83.86
2018-04-27T06:50:15.841Z,83.86
2018-04-27T06:51:15.779Z,84.00
2018-04-27T06:52:15.718Z,84.19
2018-04-27T06:53:15.669Z,84.66
2018-04-27T06:54:15.608Z,84.85
2018-04-27T06:55:15.539Z,85.33
2018-04-27T06:56:15.478Z,85.71
2018-04-27T06:57:15.422Z,85.52
2018-04-27T06:58:15.358Z,85.42
2018-04-27T06:59:15.387Z,84.80
2018-04-27T07:00:15.246Z,85.47
2018-04-27T07:01:15.180Z,86.22
2018-04-27T07:02:15.121Z,86.70
2018-04-27T07:03:15.059Z,86.22
2018-04-27T07:04:14.999Z,85.08
2018-04-27T07:05:15.051Z,85.75
2018-04-27T07:06:14.879Z,86.04
2018-04-27T07:07:14.821Z,84.84
2018-04-27T07:08:14.761Z,83.41
2018-04-27T07:09:14.702Z,83.03
2018-04-27T07:10:14.643Z,82.18
2018-04-27T07:11:14.584Z,79.60
2018-04-27T07:12:14.523Z,78.98
2018-04-27T07:13:14.464Z,78.50
2018-04-27T07:14:14.405Z,76.79
2018-04-27T07:15:14.349Z,76.40
2018-04-27T07:16:14.290Z,76.79
2018-04-27T07:17:14.231Z,75.74
2018-04-27T07:18:14.169Z,77.40
2018-04-27T07:19:14.109Z,76.73
2018-04-27T07:20:14.050Z,76.25
2018-04-27T07:21:13.993Z,76.35
2018-04-27T07:22:13.933Z,77.30
2018-04-27T07:23:13.873Z,76.44
2018-04-27T07:24:13.815Z,75.96
2018-04-27T07:25:13.757Z,75.15
2018-04-27T07:26:13.698Z,75.15
2018-04-27T07:27:13.641Z,73.43
2018-04-27T07:28:13.583Z,72.86
2018-04-27T07:29:13.525Z,72.96
2018-04-27T07:30:13.467Z,72.99
2018-04-27T07:31:13.406Z,73.47
2018-04-27T07:32:13.351Z,73.47
2018-04-27T07:33:13.292Z,70.51
2018-04-27T07:34:13.268Z,64.78
2018-04-27T07:35:13.174Z,64.53
2018-04-27T07:36:13.118Z,62.81
2018-04-27T07:37:13.064Z,62.81
2018-04-27T07:38:13.002Z,60.46
2018-04-27T07:39:12.945Z,59.02
2018-04-27T07:40:12.887Z,58.48
2018-04-27T07:41:12.831Z,56.57
2018-04-27T07:42:12.773Z,54.75
2018-04-27T07:43:12.714Z,56.28
2018-04-27T07:44:12.660Z,55.99
2018-04-27T07:45:12.624Z,55.80
2018-04-27T07:46:12.543Z,55.13
2018-04-27T07:47:12.487Z,56.31
2018-04-27T07:48:12.431Z,55.16
2018-04-27T07:49:12.374Z,56.12
2018-04-27T07:50:12.316Z,54.11
2018-04-27T07:51:12.260Z,53.63
2018-04-27T07:52:12.208Z,54.97
2018-04-27T07:53:12.146Z,53.06
2018-04-27T07:54:12.090Z,51.62
2018-04-27T07:55:12.033Z,52.48
2018-04-27T07:56:11.984Z,51.17
2018-04-27T07:57:11.921Z,50.12
2018-04-27T07:58:11.864Z,50.70
2018-04-27T07:59:11.809Z,50.50
2018-04-27T08:00:11.753Z,51.46
2018-04-27T08:01:11.699Z,50.12
2018-04-27T08:02:11.649Z,50.21
2018-04-27T08:03:11.586Z,50.02
2018-04-27T08:04:11.530Z,50.02
2018-04-27T08:05:11.475Z,49.29
2018-04-27T08:06:11.417Z,49.00
2018-04-27T08:07:11.404Z,50.24
2018-04-27T08:08:11.307Z,51.10
2018-04-27T08:09:11.250Z,50.17
2018-04-27T08:10:11.194Z,50.46
2018-04-27T08:11:11.138Z,49.50
2018-04-27T08:12:11.083Z,47.78
2018-04-27T08:13:11.033Z,47.78
2018-04-27T08:14:10.973Z,48.54
2018-04-27T08:15:10.918Z,47.49
2018-04-27T08:16:10.863Z,47.11
2018-04-27T08:17:10.807Z,49.11
2018-04-27T08:18:10.753Z,47.13
2018-04-27T08:19:10.698Z,46.75
2018-04-27T08:20:10.642Z,47.80
2018-04-27T08:21:10.589Z,46.08
2018-04-27T08:22:10.530Z,45.40
2018-04-27T08:23:10.478Z,45.40
2018-04-27T08:24:10.424Z,45.50
2018-04-27T08:25:10.367Z,46.26
2018-04-27T08:26:10.314Z,45.21
2018-04-27T08:27:10.257Z,46.36
2018-04-27T08:28:10.203Z,45.98
2018-04-27T08:29:10.154Z,45.40
2018-04-27T08:30:10.120Z,45.59
2018-04-27T08:31:10.039Z,44.83
2018-04-27T08:32:09.986Z,44.09
2018-04-27T08:33:09.930Z,45.04
2018-04-27T08:34:09.874Z,46.10
2018-04-27T08:35:09.821Z,45.33
2018-04-27T08:36:09.812Z,45.14
2018-04-27T08:37:09.713Z,45.23
2018-04-27T08:38:09.658Z,45.26
2018-04-27T08:39:09.603Z,45.07
2018-04-27T08:40:09.550Z,44.40
2018-04-27T08:41:09.495Z,43.05
2018-04-27T08:42:09.442Z,42.29
2018-04-27T08:43:09.388Z,43.34
2018-04-27T08:44:09.335Z,44.97
2018-04-27T08:45:09.280Z,45.36
2018-04-27T08:46:09.226Z,43.74
2018-04-27T08:47:09.172Z,42.98
2018-04-27T08:48:09.122Z,42.79
2018-04-27T08:49:09.065Z,42.98
2018-04-27T08:50:09.012Z,43.36
2018-04-27T08:51:08.957Z,41.63
2018-04-27T08:52:08.905Z,42.19
2018-04-27T08:53:08.852Z,42.29
2018-04-27T08:54:08.797Z,43.36
2018-04-27T08:55:08.746Z,43.17
2018-04-27T08:56:08.693Z,43.55
2018-04-27T08:57:08.640Z,41.63
2018-04-27T08:58:08.582Z,41.63
2018-04-27T08:59:08.529Z,41.44
2018-04-27T09:00:08.477Z,41.44
2018-04-27T09:01:08.430Z,41.25
2018-04-27T09:02:08.370Z,41.16
2018-04-27T09:03:08.317Z,41.08
2018-04-27T09:04:08.269Z,42.40
2018-04-27T09:05:08.220Z,41.75
2018-04-27T09:06:08.162Z,43.57
2018-04-27T09:07:08.106Z,41.20
2018-04-27T09:08:08.053Z,40.70
2018-04-27T09:09:08.000Z,40.02
2018-04-27T09:10:07.946Z,40.43
2018-04-27T09:11:07.895Z,38.20
2018-04-27T09:12:07.841Z,38.20
2018-04-27T09:13:07.793Z,38.29
2018-04-27T09:14:07.737Z,39.43
2018-04-27T09:15:07.686Z,40.41
2018-04-27T09:16:07.634Z,40.99
2018-04-27T09:17:07.578Z,40.41
2018-04-27T09:18:07.527Z,40.02
2018-04-27T09:19:07.471Z,41.08
2018-04-27T09:20:07.418Z,41.10
2018-04-27T09:21:07.366Z,40.81
2018-04-27T09:22:07.316Z,39.06
2018-04-27T09:23:07.261Z,39.83
2018-04-27T09:24:07.207Z,40.81
2018-04-27T09:25:07.158Z,40.50
2018-04-27T09:26:07.104Z,40.02
2018-04-27T09:27:07.049Z,40.05
2018-04-27T09:28:06.997Z,41.29
2018-04-27T09:29:06.944Z,40.33
2018-04-27T09:30:06.894Z,39.18
2018-04-27T09:31:06.840Z,39.20
2018-04-27T09:32:06.786Z,39.87
2018-04-27T09:33:06.735Z,39.47
2018-04-27T09:34:06.681Z,39.85
2018-04-27T09:35:06.630Z,39.47
2018-04-27T09:36:06.582Z,39.78
2018-04-27T09:37:06.528Z,39.49
2018-04-27T09:38:06.470Z,39.76
2018-04-27T09:39:06.420Z,41.89
2018-04-27T09:40:06.371Z,39.68
2018-04-27T09:41:06.333Z,38.62
2018-04-27T09:42:06.266Z,38.04
2018-04-27T09:43:06.214Z,38.32
2018-04-27T09:44:06.158Z,38.41
2018-04-27T09:45:06.110Z,38.51
2018-04-27T09:46:06.055Z,38.32
2018-04-27T09:47:06.007Z,39.47
2018-04-27T09:48:05.951Z,39.78
2018-04-27T09:49:05.899Z,39.68
2018-04-27T09:50:05.881Z,39.11
2018-04-27T09:51:05.800Z,38.93
2018-04-27T09:52:05.742Z,40.56
2018-04-27T09:53:05.688Z,40.47
2018-04-27T09:54:05.638Z,40.11
2018-04-27T09:55:05.584Z,40.49
2018-04-27T09:56:05.533Z,39.81
2018-04-27T09:57:05.481Z,38.28
2018-04-27T09:58:05.428Z,38.37
2018-04-27T09:59:05.378Z,38.85
2018-04-27T10:00:05.326Z,39.04
2018-04-27T10:01:05.274Z,37.51
2018-04-27T10:02:05.224Z,37.32
2018-04-27T10:03:05.172Z,36.93
2018-04-27T10:04:05.121Z,37.02
2018-04-27T10:05:05.067Z,38.16
2018-04-27T10:06:05.016Z,37.68
2018-04-27T10:07:04.964Z,37.59
2018-04-27T10:08:04.912Z,37.59
2018-04-27T10:09:04.860Z,37.59
2018-04-27T10:10:04.808Z,38.54
2018-04-27T10:11:04.759Z,39.51
2018-04-27T10:12:04.708Z,38.35
2018-04-27T10:13:04.657Z,38.54
2018-04-27T10:14:04.609Z,38.26
2018-04-27T10:15:04.567Z,38.54
2018-04-27T10:16:04.500Z,38.74
2018-04-27T10:17:04.449Z,38.84
2018-04-27T10:18:04.398Z,38.35
2018-04-27T10:19:04.345Z,36.62
2018-04-27T10:20:04.295Z,36.62
2018-04-27T10:21:04.245Z,37.60
2018-04-27T10:22:04.190Z,37.87
2018-04-27T10:23:04.142Z,38.56
2018-04-27T10:24:04.095Z,37.70
2018-04-27T10:25:04.037Z,38.76
2018-04-27T10:26:03.991Z,36.83
2018-04-27T10:27:03.935Z,36.72
2018-04-27T10:28:03.883Z,38.16
2018-04-27T10:29:03.832Z,39.62
2018-04-27T10:30:03.787Z,40.58
2018-04-27T10:31:03.806Z,40.41
2018-04-27T10:32:03.678Z,39.64
2018-04-27T10:33:03.627Z,35.99
2018-04-27T10:34:03.574Z,36.08
2018-04-27T10:35:03.524Z,35.99
2018-04-27T10:36:03.473Z,35.68
2018-04-27T10:37:03.422Z,37.72
2018-04-27T10:38:03.374Z,36.45
2018-04-27T10:39:03.319Z,37.62
2018-04-27T10:40:03.267Z,36.56
2018-04-27T10:41:03.220Z,37.62
2018-04-27T10:42:03.172Z,36.85
2018-04-27T10:43:03.125Z,35.99
2018-04-27T10:44:03.064Z,36.08
2018-04-27T10:45:03.014Z,37.52
2018-04-27T10:46:02.962Z,36.18
2018-04-27T10:47:02.910Z,35.99
2018-04-27T10:48:02.861Z,36.47
2018-04-27T10:49:02.808Z,36.37
2018-04-27T10:50:02.758Z,35.99
2018-04-27T10:51:02.707Z,35.70
2018-04-27T10:52:02.656Z,35.60
2018-04-27T10:53:02.605Z,36.08
2018-04-27T10:54:02.554Z,36.08
2018-04-27T10:55:02.503Z,36.16
2018-04-27T10:56:02.541Z,37.81
2018-04-27T10:57:02.401Z,37.52
2018-04-27T10:58:02.350Z,37.81
2018-04-27T10:59:02.300Z,36.56
2018-04-27T11:00:02.250Z,36.49
2018-04-27T11:01:02.200Z,36.68
2018-04-27T11:02:02.148Z,36.19
2018-04-27T11:03:02.098Z,37.06
2018-04-27T11:04:02.048Z,37.45
2018-04-27T11:05:01.997Z,36.00
2018-04-27T11:06:01.947Z,35.91
2018-04-27T11:07:01.895Z,35.91
2018-04-27T11:08:01.845Z,36.10
2018-04-27T11:09:01.793Z,38.02
2018-04-27T11:10:01.745Z,36.69
2018-04-27T11:11:01.703Z,36.51
2018-04-27T11:12:01.644Z,35.62
2018-04-27T11:13:01.600Z,36.02
2018-04-27T11:14:01.542Z,35.06
2018-04-27T11:15:01.492Z,36.31
2018-04-27T11:16:01.441Z,35.83
2018-04-27T11:17:01.664Z,36.69
2018-04-27T11:18:01.340Z,36.02
2018-04-27T11:19:01.293Z,35.64
2018-04-27T11:20:01.239Z,35.35
2018-04-27T11:21:01.192Z,34.58
2018-04-27T11:22:01.139Z,35.64
2018-04-27T11:23:01.088Z,35.73
2018-04-27T11:24:01.038Z,35.83
2018-04-27T11:25:00.991Z,36.02
2018-04-27T11:26:00.936Z,35.06
2018-04-27T11:27:00.887Z,35.73
2018-04-27T11:28:00.844Z,36.99
2018-04-27T11:29:00.791Z,37.66
2018-04-27T11:30:00.735Z,36.11
2018-04-27T11:31:00.686Z,36.02
2018-04-27T11:32:00.637Z,36.79
2018-04-27T11:33:00.587Z,35.35
2018-04-27T11:34:00.537Z,35.44
2018-04-27T11:35:00.491Z,35.44
2018-04-27T11:36:00.435Z,35.16
2018-04-27T11:37:00.386Z,35.44
2018-04-27T11:38:00.333Z,34.48
2018-04-27T11:39:00.285Z,35.73
2018-04-27T11:40:00.235Z,36.99
2018-04-27T11:41:00.188Z,34.58
2018-04-27T11:42:00.133Z,34.96
2018-04-27T11:43:00.084Z,35.73
2018-04-27T11:44:00.032Z,36.21
2018-04-27T11:44:59.981Z,36.02
2018-04-27T11:45:59.935Z,36.02
2018-04-27T11:46:59.881Z,36.87
2018-04-27T11:47:59.829Z,36.51
2018-04-27T11:48:59.780Z,36.13
2018-04-27T11:49:59.728Z,37.01
2018-04-27T11:50:59.682Z,35.75
2018-04-27T11:51:59.629Z,35.36
2018-04-27T11:52:59.579Z,37.96
2018-04-27T11:53:59.527Z,35.48
2018-04-27T11:54:59.478Z,34.50
2018-04-27T11:55:59.429Z,34.98
2018-04-27T11:56:59.378Z,35.75
2018-04-27T11:57:59.327Z,35.17
2018-04-27T11:58:59.276Z,34.98
2018-04-27T11:59:59.234Z,34.69
2018-04-27T12:00:59.178Z,34.98
2018-04-27T12:01:59.128Z,34.50
2018-04-27T12:02:59.077Z,35.36
2018-04-27T12:03:59.034Z,34.78
2018-04-27T12:04:58.979Z,33.91
2018-04-27T12:05:58.927Z,33.51
2018-04-27T12:06:58.877Z,34.29
2018-04-27T12:07:58.827Z,33.51
2018-04-27T12:08:58.782Z,33.81
2018-04-27T12:09:58.815Z,34.09
2018-04-27T12:10:58.677Z,36.02
2018-04-27T12:11:58.626Z,36.04
2018-04-27T12:12:58.577Z,34.59
2018-04-27T12:13:58.528Z,34.11
2018-04-27T12:14:58.475Z,33.15
2018-04-27T12:15:58.426Z,34.69
2018-04-27T12:16:58.376Z,34.70
2018-04-27T12:17:58.331Z,33.73
2018-04-27T12:18:58.274Z,33.53
2018-04-27T12:19:58.224Z,32.67
2018-04-27T12:20:58.175Z,33.84
2018-04-27T12:21:58.125Z,34.70
2018-04-27T12:22:58.074Z,32.29
2018-04-27T12:23:58.024Z,32.39
2018-04-27T12:24:57.974Z,32.18
2018-04-27T12:25:57.923Z,34.40
2018-04-27T12:26:57.877Z,34.50
2018-04-27T12:27:57.831Z,35.08
2018-04-27T12:28:57.779Z,34.59
2018-04-27T12:29:57.723Z,33.92
2018-04-27T12:30:57.752Z,34.42
2018-04-27T12:31:57.670Z,36.25
2018-04-27T12:32:57.575Z,35.86
2018-04-27T12:33:57.525Z,34.90
2018-04-27T12:34:57.473Z,35.48
2018-04-27T12:35:57.426Z,34.61
2018-04-27T12:36:57.377Z,34.40
2018-04-27T12:37:57.325Z,34.50
2018-04-27T12:38:57.309Z,35.58
2018-04-27T12:39:57.226Z,35.19
2018-04-27T12:40:57.176Z,36.46
2018-04-27T12:41:57.125Z,35.98
2018-04-27T12:42:57.077Z,34.44
2018-04-27T12:43:57.027Z,34.92
2018-04-27T12:44:57.023Z,34.72
2018-04-27T12:45:56.927Z,34.34
2018-04-27T12:46:56.877Z,34.82
2018-04-27T12:47:56.833Z,34.63
2018-04-27T12:48:56.780Z,35.98
2018-04-27T12:49:56.729Z,36.07
2018-04-27T12:50:56.682Z,36.94
2018-04-27T12:51:56.630Z,36.27